Time;durP1;ratioP1;P1;durP2;ratioP2;P2;SDS_P1;SDS_P2;PMS_P1;PMS_P2;Temp;Humidity;BMP_temperature;BMP_pressure;BME280_temperature;BME280_humidity;BME280_pressure;Samples;Min_cycle;Max_cycle;Signal;HPM_P1;HPM_P2
2023/01/29 00:02:22;;;;;;;;;;;;;;;26.56;52.46;100989.28;5084848;27;66313;-38
2023/01/29 00:04:53;;;;;;;;;;;;;;;26.57;52.38;100999.84;5082991;27;69534;-37
2023/01/29 00:07:27;;;;;;;;;;;;;;;26.61;52.84;101005.72;5084037;27;66756;-38
2023/01/29 00:09:58;;;;;;;;;;;;;;;26.64;53.35;101011.53;5078898;27;70085;-38
2023/01/29 00:12:29;;;;;;;;;;;;;;;26.68;54.44;101004.75;5060117;27;66400;-38
2023/01/29 00:15:00;;;;;;;;;;;;;;;26.67;55.79;101011.16;5045799;27;70681;-38
2023/01/29 00:17:31;;;;;;;;;;;;;;;26.62;54.66;101024.34;5077157;27;67067;-37
2023/01/29 00:20:01;;;;;;;;;;;;;;;26.55;53.66;101026.13;5081408;27;70013;-38
2023/01/29 00:22:32;;;;;;;;;;;;;;;26.50;52.49;101028.50;5076490;27;66096;-37
2023/01/29 00:25:03;;;;;;;;;;;;;;;26.47;51.51;101034.25;5053272;28;70121;-36
2023/01/29 00:27:33;;;;;;;;;;;;;;;26.51;51.63;101040.97;5060307;28;65404;-36
2023/01/29 00:30:17;;;;;;;;;;;;;;;26.55;51.96;101050.34;5064658;28;70143;-35
2023/01/29 00:32:48;;;;;;;;;;;;;;;26.62;51.84;101053.94;5070030;28;65582;-37
2023/01/29 00:35:21;;;;;;;;;;;;;;;26.66;51.92;101062.47;5066604;27;69290;-36
2023/01/29 00:37:53;;;;;;;;;;;;;;;26.70;51.64;101067.28;5070826;27;65560;-36
2023/01/29 00:40:25;;;;;;;;;;;;;;;26.73;51.60;101077.66;5086366;27;69684;-36
2023/01/29 00:45:45;;;;;;;;;;;;;;;26.82;51.92;101080.25;5084483;27;70241;-36
2023/01/29 00:48:15;;;;;;;;;;;;;;;26.85;51.79;101082.56;5061982;28;66637;-38
2023/01/29 00:50:52;;;;;;;;;;;;;;;26.88;52.24;101091.09;5072493;27;70469;-35
2023/01/29 00:53:29;;;;;;;;;;;;;;;26.92;52.16;101099.66;5047809;27;66627;-39
2023/01/29 00:56:00;;;;;;;;;;;;;;;27.04;55.06;101095.44;5038888;27;69217;-37
2023/01/29 00:58:34;;;;;;;;;;;;;;;27.10;56.21;101105.44;5053482;27;66780;-39
2023/01/29 01:01:04;;;;;;;;;;;;;;;27.09;56.47;101101.09;5076477;27;70394;-39
2023/01/29 01:03:40;;;;;;;;;;;;;;;26.78;56.87;101054.75;5042818;27;66692;-38
2023/01/29 01:06:11;;;;;;;;;;;;;;;27.14;57.19;101114.00;5079942;27;70683;-40
2023/01/29 01:11:33;;;;;;;;;;;;;;;27.20;57.73;101120.53;5077103;27;70325;-40
2023/01/29 01:14:03;;;;;;;;;;;;;;;27.22;57.42;101121.13;5077060;27;66224;-41
2023/01/29 01:16:36;;;;;;;;;;;;;;;26.99;54.13;101119.41;5079713;28;70388;-40
2023/01/29 01:19:07;;;;;;;;;;;;;;;26.56;54.19;101078.91;5078504;27;66919;-38
2023/01/29 01:21:38;;;;;;;;;;;;;;;26.94;56.07;101116.44;5078396;27;70059;-39
2023/01/29 01:24:12;;;;;;;;;;;;;;;26.89;55.35;101124.25;5044992;28;65032;-39
2023/01/29 01:26:42;;;;;;;;;;;;;;;27.01;57.39;101127.31;5079217;28;69350;-40
2023/01/29 01:29:13;;;;;;;;;;;;;;;27.02;56.49;101135.16;5083391;27;66380;-39
2023/01/29 01:31:44;;;;;;;;;;;;;;;26.99;57.51;101130.16;5085502;27;69846;-40
2023/01/29 01:34:19;;;;;;;;;;;;;;;27.06;58.20;101127.56;5074771;27;66328;-39
2023/01/29 01:36:49;;;;;;;;;;;;;;;27.09;59.29;101136.09;5083931;27;70276;-38
2023/01/29 01:39:20;;;;;;;;;;;;;;;27.14;60.13;101133.69;5082493;27;65433;-39
2023/01/29 01:41:54;;;;;;;;;;;;;;;27.17;60.18;101140.59;5079754;27;69793;-39
2023/01/29 01:44:43;;;;;;;;;;;;;;;27.22;60.83;101135.47;5057766;27;65673;-38
2023/01/29 01:47:19;;;;;;;;;;;;;;;27.26;61.42;101139.44;5078208;27;70435;-39
2023/01/29 01:49:51;;;;;;;;;;;;;;;27.33;59.54;101144.88;5081253;27;66551;-40
2023/01/29 01:52:22;;;;;;;;;;;;;;;27.37;58.67;101141.63;5074478;28;70184;-38
2023/01/29 01:54:56;;;;;;;;;;;;;;;27.41;58.45;101144.78;5082509;27;65690;-38
2023/01/29 01:57:27;;;;;;;;;;;;;;;27.45;58.19;101140.69;5081823;27;69213;-39
2023/01/29 02:00:09;;;;;;;;;;;;;;;27.49;58.04;101149.22;5066428;28;64637;-38
2023/01/29 02:11:19;;;;;;;;;;;;;;;27.63;57.22;101148.31;5070945;27;66378;-39
2023/01/29 02:13:52;;;;;;;;;;;;;;;27.66;57.05;101139.03;5079361;27;70868;-39
2023/01/29 02:16:33;;;;;;;;;;;;;;;27.68;57.10;101143.19;5064967;27;66077;-39
2023/01/29 02:19:11;;;;;;;;;;;;;;;27.72;57.15;101146.34;5078929;27;70013;-40
2023/01/29 02:21:57;;;;;;;;;;;;;;;27.75;56.95;101145.94;5083266;27;65060;-40
2023/01/29 02:24:48;;;;;;;;;;;;;;;27.77;56.91;101149.28;5081470;27;69498;-39
2023/01/29 02:27:39;;;;;;;;;;;;;;;27.80;56.92;101143.53;5079998;27;66522;-39
2023/01/29 02:30:22;;;;;;;;;;;;;;;27.82;58.45;101152.28;5079873;27;70031;-39
2023/01/29 02:33:21;;;;;;;;;;;;;;;27.82;57.44;101160.38;5054491;28;66955;-38
2023/01/29 02:36:03;;;;;;;;;;;;;;;27.84;57.25;101151.06;5081534;27;69193;-40
2023/01/29 02:38:43;;;;;;;;;;;;;;;27.86;57.12;101153.56;5056356;28;66879;-39
2023/01/29 02:41:34;;;;;;;;;;;;;;;27.89;56.78;101152.31;5057478;28;69610;-39
2023/01/29 02:44:27;;;;;;;;;;;;;;;27.91;56.75;101145.72;5077005;27;66637;-38
2023/01/29 02:47:03;;;;;;;;;;;;;;;27.94;56.93;101149.88;5078256;27;70301;-39
2023/01/29 02:49:53;;;;;;;;;;;;;;;27.97;56.53;101149.50;5078265;27;65977;-39
2023/01/29 02:52:32;;;;;;;;;;;;;;;27.98;56.57;101152.00;5054601;28;69806;-41
2023/01/29 02:55:11;;;;;;;;;;;;;;;28.00;56.71;101149.97;5078213;27;66535;-40
2023/01/29 02:57:44;;;;;;;;;;;;;;;28.02;56.54;101150.56;5058844;28;69002;-40
2023/01/29 03:00:18;;;;;;;;;;;;;;;28.03;56.46;101146.88;5066042;27;66358;-40
2023/01/29 03:03:00;;;;;;;;;;;;;;;28.06;56.23;101143.78;5078801;27;70689;-40
2023/01/29 03:05:34;;;;;;;;;;;;;;;28.07;56.22;101140.06;5061988;28;66712;-40
2023/01/29 03:08:09;;;;;;;;;;;;;;;28.10;56.25;101143.38;5078681;27;70310;-40
2023/01/29 03:11:04;;;;;;;;;;;;;;;28.13;55.88;101148.41;5052166;28;67021;-39
2023/01/29 03:14:04;;;;;;;;;;;;;;;28.15;56.34;101157.97;5078395;27;70858;-40
2023/01/29 03:16:42;;;;;;;;;;;;;;;28.17;56.01;101155.09;5073672;27;66028;-40
2023/01/29 03:19:16;;;;;;;;;;;;;;;28.19;55.90;101153.00;5079426;27;69787;-39
2023/01/29 03:21:59;;;;;;;;;;;;;;;28.21;55.93;101153.66;5068945;27;66059;-38
2023/01/29 03:33:31;;;;;;;;;;;;;;;28.17;57.87;101147.00;5064796;27;66629;-40
2023/01/29 03:36:05;;;;;;;;;;;;;;;28.14;57.73;101144.66;5055196;27;70726;-38
2023/01/29 03:38:43;;;;;;;;;;;;;;;28.12;57.79;101131.38;5076817;27;65513;-38
2023/01/29 03:41:25;;;;;;;;;;;;;;;28.11;58.24;101135.13;5077462;27;70122;-40
2023/01/29 03:44:06;;;;;;;;;;;;;;;28.15;58.80;101130.16;5060040;28;65557;-41
2023/01/29 03:46:45;;;;;;;;;;;;;;;28.09;56.63;101125.56;5056459;28;69665;-39
2023/01/29 03:49:35;;;;;;;;;;;;;;;28.07;57.24;101121.16;5061341;27;65847;-38
2023/01/29 03:52:36;;;;;;;;;;;;;;;28.15;58.93;101122.06;5053710;27;69295;-38
2023/01/29 03:55:25;;;;;;;;;;;;;;;28.20;59.60;101114.22;5072112;27;67070;-38
2023/01/29 03:58:08;;;;;;;;;;;;;;;28.21;59.96;101113.19;5045040;28;69088;-39
2023/01/29 04:00:51;;;;;;;;;;;;;;;28.27;61.15;101109.69;5036184;28;66244;-37
2023/01/29 04:04:12;;;;;;;;;;;;;;;28.33;61.24;101108.91;5077002;27;68335;-39
2023/01/29 04:07:01;;;;;;;;;;;;;;;28.39;61.64;101105.44;5060595;27;64932;-38
2023/01/29 04:09:35;;;;;;;;;;;;;;;28.43;61.45;101111.28;5049906;27;70298;-39
2023/01/29 04:12:10;;;;;;;;;;;;;;;28.45;61.85;101087.66;5060799;28;65424;-37
2023/01/29 04:14:57;;;;;;;;;;;;;;;28.47;61.94;101086.41;5078530;27;70304;-37
2023/01/29 04:17:36;;;;;;;;;;;;;;;28.49;61.26;101089.72;5077413;27;66590;-39
2023/01/29 04:20:24;;;;;;;;;;;;;;;28.51;61.10;101087.66;5060376;28;70471;-38
2023/01/29 04:22:54;;;;;;;;;;;;;;;28.50;60.87;101080.63;5078413;27;66069;-37
2023/01/29 04:25:34;;;;;;;;;;;;;;;28.52;61.31;101073.13;5075369;27;70222;-37
2023/01/29 04:28:15;;;;;;;;;;;;;;;28.54;61.05;101074.81;5080367;27;65960;-39
2023/01/29 04:30:52;;;;;;;;;;;;;;;28.58;61.40;101081.47;5039444;27;69362;-37
2023/01/29 04:33:32;;;;;;;;;;;;;;;28.62;60.73;101078.19;5077895;27;65959;-41
2023/01/29 04:36:15;;;;;;;;;;;;;;;28.68;60.37;101076.53;5069632;27;70438;-38
2023/01/29 04:39:04;;;;;;;;;;;;;;;28.75;60.52;101069.28;5081082;27;65950;-39
2023/01/29 04:41:54;;;;;;;;;;;;;;;28.78;60.01;101066.22;5086908;27;71778;-37
2023/01/29 04:44:27;;;;;;;;;;;;;;;28.84;59.63;101060.00;5083335;27;66661;-37
2023/01/29 04:47:09;;;;;;;;;;;;;;;28.90;59.59;101064.59;5082682;27;69849;-37
2023/01/29 04:49:49;;;;;;;;;;;;;;;28.94;59.05;101060.44;5080892;27;66081;-38
2023/01/29 04:52:28;;;;;;;;;;;;;;;28.98;58.86;101043.84;5082930;27;69303;-37
2023/01/29 04:54:59;;;;;;;;;;;;;;;29.00;59.22;101045.28;5083212;27;66322;-37
2023/01/29 04:57:48;;;;;;;;;;;;;;;29.03;59.04;101041.34;5080303;27;69319;-39
2023/01/29 05:00:23;;;;;;;;;;;;;;;29.06;58.71;101027.47;5050200;27;66149;-39
2023/01/29 05:02:57;;;;;;;;;;;;;;;29.10;58.91;101015.22;5061479;27;70699;-37
2023/01/29 05:05:35;;;;;;;;;;;;;;;29.06;59.67;101019.34;5049986;27;66360;-38
2023/01/29 05:08:16;;;;;;;;;;;;;;;28.98;60.03;101016.84;5079669;27;70850;-36
2023/01/29 05:10:51;;;;;;;;;;;;;;;28.91;60.64;101016.81;5079404;27;65580;-38
2023/01/29 05:13:22;;;;;;;;;;;;;;;28.88;60.94;101017.22;5080302;27;70388;-35
2023/01/29 05:16:09;;;;;;;;;;;;;;;28.84;61.03;101000.59;5081488;27;66326;-39
2023/01/29 05:18:40;;;;;;;;;;;;;;;28.60;57.80;100988.47;5080829;27;69971;-35
2023/01/29 05:21:13;;;;;;;;;;;;;;;28.45;55.80;101002.13;5082574;27;66198;-36
2023/01/29 05:23:52;;;;;;;;;;;;;;;28.42;55.61;100997.13;5087848;27;69575;-36
2023/01/29 05:29:16;;;;;;;;;;;;;;;28.32;54.40;100980.44;5075325;27;69255;-36
2023/01/29 05:31:50;;;;;;;;;;;;;;;28.27;53.87;100982.91;5079539;27;66007;-37
2023/01/29 05:34:27;;;;;;;;;;;;;;;28.18;52.85;100968.75;5056553;27;70266;-36
2023/01/29 05:36:57;;;;;;;;;;;;;;;28.11;51.34;100969.75;5060811;27;66340;-37
2023/01/29 05:39:31;;;;;;;;;;;;;;;28.26;51.32;100960.50;5077244;27;70193;-36
2023/01/29 05:42:02;;;;;;;;;;;;;;;28.33;50.54;100949.72;5076574;27;66662;-38
2023/01/29 05:44:33;;;;;;;;;;;;;;;28.33;49.88;100943.50;5061350;27;69319;-38
2023/01/29 05:47:03;;;;;;;;;;;;;;;28.36;49.47;100935.84;5077224;27;66242;-37
2023/01/29 05:49:34;;;;;;;;;;;;;;;28.32;48.73;100931.88;5076100;27;69763;-38
2023/01/29 05:52:06;;;;;;;;;;;;;;;28.33;48.02;100928.16;5076443;27;65546;-37
2023/01/29 05:54:40;;;;;;;;;;;;;;;28.33;47.50;100925.44;5080261;27;70142;-38
2023/01/29 05:57:14;;;;;;;;;;;;;;;28.32;47.05;100920.28;5075303;27;65877;-35
2023/01/29 05:59:50;;;;;;;;;;;;;;;28.31;46.46;100908.66;5078817;27;68961;-37
2023/01/29 06:02:20;;;;;;;;;;;;;;;28.31;45.43;100897.88;5078464;27;66676;-36
2023/01/29 06:04:51;;;;;;;;;;;;;;;28.29;44.87;100897.22;5080386;27;70388;-35
2023/01/29 06:07:22;;;;;;;;;;;;;;;28.25;45.10;100890.56;5077009;27;66699;-36
2023/01/29 06:09:52;;;;;;;;;;;;;;;28.19;45.08;100883.28;5081397;27;70379;-36
2023/01/29 06:12:26;;;;;;;;;;;;;;;28.15;44.55;100882.03;5076657;27;66820;-40
2023/01/29 06:14:57;;;;;;;;;;;;;;;28.16;44.29;100875.59;5057369;28;69468;-37
2023/01/29 06:17:28;;;;;;;;;;;;;;;28.12;43.67;100882.44;5082017;27;66405;-38
2023/01/29 06:19:58;;;;;;;;;;;;;;;28.10;43.27;100866.44;5076138;27;70999;-37
2023/01/29 06:22:39;;;;;;;;;;;;;;;28.10;43.22;100868.31;5057734;28;66031;-37
2023/01/29 06:25:13;;;;;;;;;;;;;;;28.07;42.75;100851.50;5076330;27;69922;-38
2023/01/29 06:27:52;;;;;;;;;;;;;;;28.04;42.52;100849.22;5059100;28;65355;-37
2023/01/29 06:30:32;;;;;;;;;;;;;;;28.01;42.29;100852.31;5074999;27;70524;-36
2023/01/29 06:33:05;;;;;;;;;;;;;;;28.02;42.33;100845.88;5077340;27;65646;-37
2023/01/29 06:35:39;;;;;;;;;;;;;;;28.04;41.94;100843.00;5090335;27;69762;-38
2023/01/29 06:38:10;;;;;;;;;;;;;;;28.05;42.27;100839.25;5076426;27;65352;-37
2023/01/29 06:40:40;;;;;;;;;;;;;;;28.04;42.21;100832.19;5064306;27;69827;-37
2023/01/29 06:43:11;;;;;;;;;;;;;;;28.03;42.07;100823.28;5073598;27;65994;-37
2023/01/29 06:45:47;;;;;;;;;;;;;;;28.03;41.65;100815.19;5039132;28;70238;-38
2023/01/29 06:48:22;;;;;;;;;;;;;;;28.02;41.71;100813.50;5095857;27;66880;-38
2023/01/29 06:50:58;;;;;;;;;;;;;;;28.00;41.43;100806.66;5061827;27;69844;-40
2023/01/29 06:53:35;;;;;;;;;;;;;;;28.01;41.24;100809.16;5089956;27;66075;-37
2023/01/29 06:56:18;;;;;;;;;;;;;;;28.01;41.13;100801.09;5090774;27;70194;-37
2023/01/29 06:58:49;;;;;;;;;;;;;;;28.03;41.21;100804.41;5062245;27;66450;-35
2023/01/29 07:01:22;;;;;;;;;;;;;;;28.01;40.96;100801.09;5093511;27;70506;-36
2023/01/29 07:04:04;;;;;;;;;;;;;;;28.03;40.74;100793.63;5086908;27;66360;-35
2023/01/29 07:06:34;;;;;;;;;;;;;;;28.02;40.91;100786.56;5085859;27;70289;-37
2023/01/29 07:09:07;;;;;;;;;;;;;;;28.03;40.96;100793.63;5085772;27;66338;-37
2023/01/29 07:11:38;;;;;;;;;;;;;;;28.02;40.86;100786.56;5084026;27;71199;-38
2023/01/29 07:14:17;;;;;;;;;;;;;;;28.02;40.45;100789.25;5092841;27;65533;-39
2023/01/29 07:16:48;;;;;;;;;;;;;;;28.04;40.56;100784.50;5083513;27;69507;-37
2023/01/29 07:19:24;;;;;;;;;;;;;;;28.07;40.27;100783.25;5082573;27;65550;-37
2023/01/29 07:21:55;;;;;;;;;;;;;;;28.07;40.16;100781.38;5062228;27;70181;-36
2023/01/29 07:24:26;;;;;;;;;;;;;;;28.11;39.98;100786.38;5082676;27;65321;-35
2023/01/29 07:27:00;;;;;;;;;;;;;;;28.15;39.85;100779.56;5078909;27;69908;-39
2023/01/29 07:29:31;;;;;;;;;;;;;;;28.16;39.90;100786.59;5047385;27;66363;-37
2023/01/29 07:32:03;;;;;;;;;;;;;;;28.19;39.57;100764.59;5080223;27;69863;-36
2023/01/29 07:34:37;;;;;;;;;;;;;;;28.18;39.75;100763.78;5073740;27;65981;-36
2023/01/29 07:37:08;;;;;;;;;;;;;;;28.20;39.77;100768.97;5078605;27;68026;-35
2023/01/29 07:39:42;;;;;;;;;;;;;;;28.18;39.86;100762.97;5064279;27;66612;-42
2023/01/29 07:42:12;;;;;;;;;;;;;;;28.19;39.85;100759.22;5077312;27;69004;-35
2023/01/29 07:44:45;;;;;;;;;;;;;;;28.22;40.04;100753.41;5078400;27;66043;-36
2023/01/29 07:47:15;;;;;;;;;;;;;;;28.24;39.75;100746.78;5077733;27;69916;-36
2023/01/29 07:49:49;;;;;;;;;;;;;;;28.32;40.12;100745.75;5076807;27;64980;-36
2023/01/29 07:52:20;;;;;;;;;;;;;;;28.36;40.09;100749.72;5074650;27;69631;-35
2023/01/29 07:54:55;;;;;;;;;;;;;;;28.40;40.03;100739.31;5076726;27;66761;-36
2023/01/29 07:57:29;;;;;;;;;;;;;;;28.39;39.25;100733.09;5075676;27;69395;-36
2023/01/29 08:00:09;;;;;;;;;;;;;;;28.45;39.22;100726.91;5079663;27;67463;-34
2023/01/29 08:02:40;;;;;;;;;;;;;;;28.45;39.14;100743.09;5074890;27;69297;-38
2023/01/29 08:05:11;;;;;;;;;;;;;;;28.47;39.15;100746.44;5078736;27;64872;-36
2023/01/29 08:07:44;;;;;;;;;;;;;;;27.87;39.08;100648.41;5078242;27;70576;-38
2023/01/29 08:10:29;;;;;;;;;;;;;;;28.49;38.72;100738.94;5060801;28;67373;-36
2023/01/29 08:13:03;;;;;;;;;;;;;;;28.48;38.90;100731.88;5060407;27;69079;-41
2023/01/29 08:15:44;;;;;;;;;;;;;;;28.61;39.24;100735.59;5057678;27;65466;-39
2023/01/29 08:18:14;;;;;;;;;;;;;;;28.48;41.03;100723.78;5074849;27;69975;-36
2023/01/29 08:20:45;;;;;;;;;;;;;;;28.64;44.17;100729.78;5040860;28;67040;-36
2023/01/29 08:23:18;;;;;;;;;;;;;;;28.75;47.34;100726.44;5060011;28;70597;-37
2023/01/29 08:25:48;;;;;;;;;;;;;;;28.87;48.75;100732.91;5076721;27;66812;-36
2023/01/29 08:28:20;;;;;;;;;;;;;;;28.97;49.75;100735.16;5058530;27;69620;-37
2023/01/29 08:30:51;;;;;;;;;;;;;;;29.09;50.16;100727.28;5037017;27;66679;-39
2023/01/29 08:33:26;;;;;;;;;;;;;;;29.23;51.76;100738.88;5056928;27;70287;-39
2023/01/29 08:36:07;;;;;;;;;;;;;;;29.32;51.75;100743.00;5078207;27;66728;-37
2023/01/29 08:39:05;;;;;;;;;;;;;;;29.40;52.33;100740.88;5050448;27;70155;-40
2023/01/29 08:41:35;;;;;;;;;;;;;;;29.46;53.48;100743.78;5076903;27;66912;-38
2023/01/29 08:44:09;;;;;;;;;;;;;;;29.55;51.69;100737.06;5040388;28;70204;-38
2023/01/29 08:46:40;;;;;;;;;;;;;;;29.61;51.20;100742.47;5050417;28;67402;-36
2023/01/29 08:49:13;;;;;;;;;;;;;;;29.65;51.31;100742.88;5077062;27;70409;-37
2023/01/29 08:51:44;;;;;;;;;;;;;;;29.69;51.36;100752.22;5058925;27;66350;-37
2023/01/29 08:54:24;;;;;;;;;;;;;;;29.71;51.76;100752.84;5077858;27;63682;-39
2023/01/29 08:56:55;;;;;;;;;;;;;;;29.73;51.10;100750.75;5075663;27;66683;-38
2023/01/29 08:59:35;;;;;;;;;;;;;;;29.77;50.56;100749.25;5085418;27;70232;-37
2023/01/29 09:02:05;;;;;;;;;;;;;;;29.79;51.42;100749.06;5059992;27;65907;-38
2023/01/29 09:04:45;;;;;;;;;;;;;;;29.81;50.41;100747.81;5057396;27;70657;-38
2023/01/29 09:07:23;;;;;;;;;;;;;;;29.86;49.37;100749.00;5060633;28;65591;-37
2023/01/29 09:09:57;;;;;;;;;;;;;;;29.89;49.54;100753.97;5076313;27;70045;-37
2023/01/29 09:12:31;;;;;;;;;;;;;;;29.89;49.91;100756.69;5078271;27;66796;-41
2023/01/29 09:15:05;;;;;;;;;;;;;;;29.94;50.30;100762.28;5077533;27;70531;-38
2023/01/29 09:17:36;;;;;;;;;;;;;;;29.95;49.64;100763.94;5082006;27;66810;-37
2023/01/29 09:20:20;;;;;;;;;;;;;;;29.98;49.95;100764.34;5079291;27;70421;-39
2023/01/29 09:22:58;;;;;;;;;;;;;;;30.00;50.08;100767.63;5074758;27;67592;-39
2023/01/29 09:25:46;;;;;;;;;;;;;;;30.03;48.50;100767.22;5079186;27;70075;-36
2023/01/29 09:28:22;;;;;;;;;;;;;;;30.04;48.78;100770.75;5044532;28;66092;-37
2023/01/29 09:30:53;;;;;;;;;;;;;;;30.06;48.78;100772.22;5082557;27;69968;-41
2023/01/29 09:33:27;;;;;;;;;;;;;;;30.08;49.30;100771.97;5086887;27;68114;-39
2023/01/29 09:36:01;;;;;;;;;;;;;;;30.08;49.68;100771.97;5059525;27;70513;-37
2023/01/29 09:38:32;;;;;;;;;;;;;;;30.11;49.01;100771.53;5056520;27;66584;-42
2023/01/29 09:41:18;;;;;;;;;;;;;;;30.11;48.67;100766.13;5086647;27;70655;-39
2023/01/29 09:43:55;;;;;;;;;;;;;;;30.13;48.50;100768.63;5080562;27;66715;-39
2023/01/29 09:46:31;;;;;;;;;;;;;;;30.14;47.99;100778.38;5079484;27;70351;-37
2023/01/29 09:49:15;;;;;;;;;;;;;;;30.15;47.22;100775.47;5086183;27;66518;-35
2023/01/29 09:51:49;;;;;;;;;;;;;;;30.15;47.50;100780.88;5077997;28;69125;-39
2023/01/29 09:54:29;;;;;;;;;;;;;;;30.15;47.36;100786.31;5079837;27;67102;-37
2023/01/29 09:57:10;;;;;;;;;;;;;;;30.16;47.75;100779.00;5077774;27;69843;-36
2023/01/29 09:59:40;;;;;;;;;;;;;;;30.16;47.23;100782.53;5084628;27;67305;-38
2023/01/29 10:02:20;;;;;;;;;;;;;;;30.15;47.59;100780.06;5081376;27;70278;-36
2023/01/29 10:05:14;;;;;;;;;;;;;;;30.19;47.33;100782.09;5088045;27;66001;-37
2023/01/29 10:08:04;;;;;;;;;;;;;;;30.15;47.94;100775.47;5058682;28;70114;-38
2023/01/29 10:10:47;;;;;;;;;;;;;;;30.17;48.18;100776.09;5081872;27;66420;-37
2023/01/29 10:13:27;;;;;;;;;;;;;;;30.19;49.17;100775.88;5071830;27;70303;-43
2023/01/29 10:16:03;;;;;;;;;;;;;;;30.22;49.41;100788.97;5073485;27;66046;-38
2023/01/29 10:18:36;;;;;;;;;;;;;;;30.25;49.20;100791.25;5064898;28;70233;-39
2023/01/29 10:21:16;;;;;;;;;;;;;;;30.29;49.65;100787.06;5060443;27;66199;-42
2023/01/29 10:24:07;;;;;;;;;;;;;;;30.28;49.84;100791.66;5081258;27;69958;-39
2023/01/29 10:26:39;;;;;;;;;;;;;;;30.32;49.97;100793.94;5083426;27;64878;-38
2023/01/29 10:29:15;;;;;;;;;;;;;;;30.30;49.90;100793.31;5080394;27;69728;-36
2023/01/29 10:32:03;;;;;;;;;;;;;;;30.34;50.39;100800.78;5087044;27;66796;-38
2023/01/29 10:34:40;;;;;;;;;;;;;;;30.33;51.15;100798.28;5079130;27;71099;-39
2023/01/29 10:37:24;;;;;;;;;;;;;;;30.32;52.04;100802.03;5085063;27;66649;-37
2023/01/29 10:39:54;;;;;;;;;;;;;;;30.33;52.31;100809.09;5082882;27;70543;-37
2023/01/29 10:42:44;;;;;;;;;;;;;;;30.32;54.28;100807.47;5063692;27;66912;-36
2023/01/29 10:45:28;;;;;;;;;;;;;;;30.49;53.36;100809.41;5081268;27;70264;-37
2023/01/29 10:48:03;;;;;;;;;;;;;;;30.71;52.49;100820.69;5068297;27;65091;-39
2023/01/29 10:50:45;;;;;;;;;;;;;;;30.85;52.14;100839.56;5077537;27;70599;-40
2023/01/29 10:53:25;;;;;;;;;;;;;;;30.92;51.27;100834.91;5078234;27;65235;-38
2023/01/29 10:55:55;;;;;;;;;;;;;;;30.98;51.27;100844.88;5054296;27;70217;-39
2023/01/29 10:58:48;;;;;;;;;;;;;;;31.02;50.57;100846.09;5064575;27;66160;-38
2023/01/29 11:01:19;;;;;;;;;;;;;;;31.05;50.16;100850.22;5074429;27;69976;-37
2023/01/29 11:03:58;;;;;;;;;;;;;;;31.08;49.95;100863.34;5080407;27;66411;-38
2023/01/29 11:06:38;;;;;;;;;;;;;;;31.08;50.22;100861.44;5078652;27;69720;-39
2023/01/29 11:09:21;;;;;;;;;;;;;;;31.09;49.95;100860.41;5081929;27;65380;-39
2023/01/29 11:12:18;;;;;;;;;;;;;;;30.69;52.76;100866.09;5079696;27;70431;-37
2023/01/29 11:15:10;;;;;;;;;;;;;;;30.56;53.27;100868.91;5070029;27;67007;-37
2023/01/29 11:17:59;;;;;;;;;;;;;;;30.49;53.26;100868.94;5086732;27;69391;-37
2023/01/29 11:20:36;;;;;;;;;;;;;;;30.40;53.49;100869.44;5081313;27;66573;-40
2023/01/29 11:23:39;;;;;;;;;;;;;;;30.37;53.28;100870.72;5082674;27;69931;-39
2023/01/29 11:26:21;;;;;;;;;;;;;;;30.37;53.32;100883.38;5009070;27;66664;-36
2023/01/29 11:28:52;;;;;;;;;;;;;;;30.36;53.87;100879.03;5073005;27;69385;-41
2023/01/29 11:31:45;;;;;;;;;;;;;;;30.32;53.60;100888.66;5040512;27;66349;-40
2023/01/29 11:34:23;;;;;;;;;;;;;;;30.35;54.26;100893.63;5071468;27;70754;-41
2023/01/29 11:37:20;;;;;;;;;;;;;;;30.39;53.65;100889.41;5080352;27;65736;-37
2023/01/29 11:39:51;;;;;;;;;;;;;;;30.36;53.88;100900.69;5074135;27;70725;-42
2023/01/29 11:42:30;;;;;;;;;;;;;;;30.35;53.68;100901.75;5062538;27;65968;-38
2023/01/29 11:45:01;;;;;;;;;;;;;;;30.38;54.47;100909.41;5080379;27;70062;-39
2023/01/29 11:47:33;;;;;;;;;;;;;;;30.39;54.11;100905.66;5077347;27;66041;-36
2023/01/29 11:50:19;;;;;;;;;;;;;;;30.39;54.56;100906.47;5079226;27;70751;-37
2023/01/29 11:53:22;;;;;;;;;;;;;;;30.39;53.97;100908.38;5055270;27;66267;-36
2023/01/29 11:55:54;;;;;;;;;;;;;;;30.40;53.99;100918.16;5079271;27;70495;-37
2023/01/29 11:58:44;;;;;;;;;;;;;;;30.39;54.81;100927.31;5082325;27;66604;-37
2023/01/29 12:01:30;;;;;;;;;;;;;;;30.40;54.81;100937.09;5077378;27;69965;-37
2023/01/29 12:04:02;;;;;;;;;;;;;;;30.42;55.51;100954.78;5054747;27;67158;-37
2023/01/29 12:06:52;;;;;;;;;;;;;;;30.43;55.12;100966.44;5084275;27;69737;-37
2023/01/29 12:09:27;;;;;;;;;;;;;;;30.44;55.65;100968.91;5083720;27;66419;-38
2023/01/29 12:12:16;;;;;;;;;;;;;;;30.45;55.89;100969.75;5081565;27;70426;-37
2023/01/29 12:14:46;;;;;;;;;;;;;;;30.44;55.10;100973.50;5083716;27;65305;-41
2023/01/29 12:17:25;;;;;;;;;;;;;;;30.41;55.78;100974.75;5083431;27;70493;-38
2023/01/29 12:20:12;;;;;;;;;;;;;;;30.41;55.94;100985.59;5081878;27;64645;-38
2023/01/29 12:23:11;;;;;;;;;;;;;;;30.43;56.75;100990.81;5083241;27;70737;-36
2023/01/29 12:26:01;;;;;;;;;;;;;;;30.44;56.20;100989.75;5057018;27;66453;-40
2023/01/29 12:29:02;;;;;;;;;;;;;;;30.38;56.77;100996.03;5075925;27;69826;-37
2023/01/29 12:31:54;;;;;;;;;;;;;;;30.39;56.88;100994.97;5084883;27;66847;-37
2023/01/29 12:34:46;;;;;;;;;;;;;;;30.38;56.52;101012.25;5060951;27;70704;-38
2023/01/29 12:37:38;;;;;;;;;;;;;;;30.40;56.00;101007.47;5079239;27;65661;-37
2023/01/29 12:40:22;;;;;;;;;;;;;;;30.38;55.81;101013.09;5079163;27;69043;-38
2023/01/29 12:43:01;;;;;;;;;;;;;;;30.36;56.42;101014.34;5079188;27;65777;-37
2023/01/29 12:45:37;;;;;;;;;;;;;;;30.35;56.77;101013.53;5064132;27;70240;-36
2023/01/29 12:48:13;;;;;;;;;;;;;;;30.35;57.55;101018.09;5078661;27;66523;-38
2023/01/29 12:51:03;;;;;;;;;;;;;;;30.37;57.90;101016.84;5083173;27;70197;-37
2023/01/29 12:53:51;;;;;;;;;;;;;;;30.39;58.49;101019.31;5082570;27;66864;-42
2023/01/29 12:56:49;;;;;;;;;;;;;;;30.41;58.91;101025.38;5089377;27;69962;-37
2023/01/29 12:59:59;;;;;;;;;;;;;;;30.39;58.95;101035.56;5069729;27;66480;-37
2023/01/29 13:02:53;;;;;;;;;;;;;;;30.21;58.66;101038.94;5081943;27;70707;-38
2023/01/29 13:05:33;;;;;;;;;;;;;;;29.96;56.14;101047.72;5081749;27;66762;-38
2023/01/29 13:08:29;;;;;;;;;;;;;;;29.70;54.38;101047.72;5074601;27;70535;-37
2023/01/29 13:11:02;;;;;;;;;;;;;;;29.53;53.78;101049.97;5076572;27;67157;-38
2023/01/29 13:13:51;;;;;;;;;;;;;;;29.42;52.99;101062.25;5058431;28;69239;-38
2023/01/29 13:16:40;;;;;;;;;;;;;;;29.25;51.82;101069.88;5079855;27;66410;-36
2023/01/29 13:19:29;;;;;;;;;;;;;;;29.10;50.42;101072.78;5081418;27;70433;-37
2023/01/29 13:22:14;;;;;;;;;;;;;;;29.07;50.05;101080.47;5078932;27;66496;-38
2023/01/29 13:24:45;;;;;;;;;;;;;;;29.01;49.74;101081.25;5080562;27;69562;-38
2023/01/29 13:27:34;;;;;;;;;;;;;;;28.95;48.71;101078.31;5085257;27;67045;-38
2023/01/29 13:30:06;;;;;;;;;;;;;;;28.85;48.45;101080.56;5083430;27;70480;-40
2023/01/29 13:32:36;;;;;;;;;;;;;;;28.72;47.56;101083.19;5083593;27;66678;-37
2023/01/29 13:35:14;;;;;;;;;;;;;;;28.61;47.31;101081.06;5077712;27;69767;-38
2023/01/29 13:37:52;;;;;;;;;;;;;;;28.52;46.72;101094.72;5082362;27;65669;-38
2023/01/29 13:40:23;;;;;;;;;;;;;;;28.44;46.06;101096.75;5082205;27;70407;-41
2023/01/29 13:42:54;;;;;;;;;;;;;;;28.33;45.79;101099.97;5085003;27;65852;-38
2023/01/29 13:45:41;;;;;;;;;;;;;;;28.33;46.45;101106.19;5087659;27;70463;-39
2023/01/29 13:48:18;;;;;;;;;;;;;;;28.25;46.20;101109.03;5062616;27;66797;-38
2023/01/29 13:50:50;;;;;;;;;;;;;;;28.18;45.71;101113.59;5086275;27;70258;-41
2023/01/29 13:53:26;;;;;;;;;;;;;;;28.19;45.98;101123.34;5066729;27;65252;-39
2023/01/29 13:56:17;;;;;;;;;;;;;;;28.25;45.72;101119.84;5044332;27;70685;-37
2023/01/29 13:59:28;;;;;;;;;;;;;;;28.27;44.66;101123.19;4970233;28;66407;-36